createdAt,value
2023-01-25T00:00:07.877Z,3.16
2023-01-25T00:02:35.604Z,3.18
2023-01-25T00:05:03.248Z,3.12
2023-01-25T00:07:30.762Z,3.12
2023-01-25T00:09:58.341Z,3.14
2023-01-25T00:12:27.245Z,3.13
2023-01-25T00:14:54.756Z,3.13
2023-01-25T00:17:22.337Z,3.18
2023-01-25T00:19:49.958Z,3.17
2023-01-25T00:22:17.532Z,3.15
2023-01-25T00:24:45.045Z,3.15
2023-01-25T00:27:12.617Z,3.10
2023-01-25T00:30:17.872Z,3.12
2023-01-25T00:32:55.055Z,3.12
2023-01-25T00:35:41.055Z,3.14
2023-01-25T00:39:03.691Z,3.16
2023-01-25T00:41:37.561Z,3.10
2023-01-25T00:44:05.510Z,3.11
2023-01-25T00:46:34.576Z,3.12
2023-01-25T00:49:02.183Z,3.09
2023-01-25T00:51:29.848Z,3.14
2023-01-25T00:53:57.539Z,3.16
2023-01-25T00:56:25.303Z,3.18
2023-01-25T00:58:52.876Z,3.12
2023-01-25T01:01:20.767Z,3.13
2023-01-25T01:03:49.723Z,3.13
2023-01-25T01:06:53.796Z,3.11
2023-01-25T01:09:57.835Z,3.12
2023-01-25T01:12:44.100Z,3.09
2023-01-25T01:16:07.287Z,3.12
2023-01-25T01:19:49.758Z,3.16
2023-01-25T01:22:36.968Z,3.13
2023-01-25T01:25:05.015Z,3.11
2023-01-25T01:27:32.617Z,3.10
2023-01-25T01:30:00.219Z,3.08
2023-01-25T01:32:28.067Z,3.11
2023-01-25T01:34:55.760Z,3.12
2023-01-25T01:37:23.651Z,3.10
2023-01-25T01:39:52.878Z,3.20
2023-01-25T01:42:20.599Z,3.16
2023-01-25T01:44:50.118Z,3.12
2023-01-25T01:47:23.536Z,3.10
2023-01-25T01:50:00.246Z,3.10
2023-01-25T01:52:33.763Z,3.07
2023-01-25T01:55:08.924Z,3.08
2023-01-25T01:57:41.896Z,3.09
2023-01-25T02:00:14.513Z,3.15
2023-01-25T02:02:43.404Z,3.09
2023-01-25T02:05:17.189Z,3.11
2023-01-25T02:07:48.085Z,3.06
2023-01-25T02:10:18.930Z,3.09
2023-01-25T02:12:49.011Z,3.08
2023-01-25T02:15:16.677Z,3.17
2023-01-25T02:17:44.493Z,3.13
2023-01-25T02:20:25.112Z,3.12
2023-01-25T02:23:00.250Z,3.11
2023-01-25T02:25:30.222Z,3.06
2023-01-25T02:28:03.112Z,3.08
2023-01-25T02:30:31.905Z,3.07
2023-01-25T02:32:59.445Z,3.11
2023-01-25T02:35:38.804Z,3.14
2023-01-25T02:38:07.853Z,3.13
2023-01-25T02:40:44.034Z,3.12
2023-01-25T02:43:12.307Z,3.09
2023-01-25T02:45:40.103Z,3.10
2023-01-25T02:48:07.904Z,3.08
2023-01-25T02:50:35.524Z,3.10
2023-01-25T02:53:03.084Z,3.09
2023-01-25T02:55:30.726Z,3.09
2023-01-25T02:57:59.830Z,3.08
2023-01-25T03:00:27.963Z,3.11
2023-01-25T03:02:55.579Z,3.14
2023-01-25T03:05:24.918Z,3.15
2023-01-25T03:07:53.089Z,3.09
2023-01-25T03:10:20.705Z,3.07
2023-01-25T03:12:49.064Z,3.05
2023-01-25T03:15:18.281Z,3.10
2023-01-25T03:17:45.945Z,3.09
2023-01-25T03:20:13.947Z,3.10
2023-01-25T03:22:42.084Z,3.11
2023-01-25T03:25:10.989Z,3.13
2023-01-25T03:27:43.391Z,3.11
2023-01-25T03:30:12.763Z,3.06
2023-01-25T03:32:41.963Z,3.09
2023-01-25T03:35:14.032Z,3.05
2023-01-25T03:37:41.587Z,3.03
2023-01-25T03:40:10.777Z,3.03
2023-01-25T03:42:41.451Z,3.03
2023-01-25T03:45:10.164Z,3.09
2023-01-25T03:47:38.229Z,3.07
2023-01-25T03:50:08.718Z,3.02
2023-01-25T03:52:40.609Z,3.04
2023-01-25T03:55:09.833Z,3.02
2023-01-25T03:57:41.754Z,3.04
2023-01-25T04:00:12.743Z,3.02
2023-01-25T04:02:43.180Z,2.99
2023-01-25T04:05:16.031Z,2.91
2023-01-25T04:07:43.656Z,2.91
2023-01-25T04:10:12.106Z,2.88
2023-01-25T04:12:43.830Z,2.91
2023-01-25T04:15:11.962Z,2.91
2023-01-25T04:17:40.515Z,2.88
2023-01-25T04:20:24.982Z,2.96
2023-01-25T04:22:53.660Z,3.02
2023-01-25T04:25:26.339Z,2.98
2023-01-25T04:27:54.744Z,2.95
2023-01-25T04:30:22.397Z,3.03
2023-01-25T04:32:51.599Z,3.06
2023-01-25T04:35:27.933Z,3.02
2023-01-25T04:37:56.527Z,2.98
2023-01-25T04:40:27.197Z,2.94
2023-01-25T04:42:54.855Z,2.95
2023-01-25T04:45:22.844Z,2.90
2023-01-25T04:47:50.903Z,2.97
2023-01-25T04:50:18.748Z,2.91
2023-01-25T04:52:48.421Z,2.90
2023-01-25T04:55:16.300Z,2.83
2023-01-25T04:57:45.371Z,2.85
2023-01-25T05:00:13.827Z,2.84
2023-01-25T05:02:41.583Z,2.82
2023-01-25T05:05:10.551Z,2.84
2023-01-25T05:07:38.677Z,2.82
2023-01-25T05:10:09.894Z,2.78
2023-01-25T05:12:42.120Z,2.66
2023-01-25T05:15:10.650Z,2.70
2023-01-25T05:17:38.535Z,2.70
2023-01-25T05:20:07.388Z,2.67
2023-01-25T05:22:34.979Z,2.64
2023-01-25T05:25:03.661Z,2.60
2023-01-25T05:27:31.683Z,2.58
2023-01-25T05:30:19.306Z,2.67
2023-01-25T05:32:58.199Z,2.67
2023-01-25T05:35:26.220Z,2.66
2023-01-25T05:37:57.804Z,2.73
2023-01-25T05:40:26.767Z,2.74
2023-01-25T05:43:00.664Z,2.82
2023-01-25T05:45:30.810Z,2.81
2023-01-25T05:48:00.399Z,2.76
2023-01-25T05:50:28.314Z,2.65
2023-01-25T05:53:06.043Z,2.61
2023-01-25T05:55:36.700Z,2.58
2023-01-25T05:58:09.887Z,2.61
2023-01-25T06:00:39.611Z,2.60
2023-01-25T06:03:07.496Z,2.56
2023-01-25T06:05:37.615Z,2.59
2023-01-25T06:08:05.587Z,2.62
2023-01-25T06:10:42.952Z,2.58
2023-01-25T06:13:11.852Z,2.57
2023-01-25T06:15:39.562Z,2.57
2023-01-25T06:18:39.464Z,2.57
2023-01-25T06:21:18.972Z,2.55
2023-01-25T06:23:46.790Z,2.58
2023-01-25T06:26:16.254Z,2.60
2023-01-25T06:28:45.139Z,2.60
2023-01-25T06:31:14.682Z,2.53
2023-01-25T06:33:44.679Z,2.67
2023-01-25T06:36:13.954Z,2.63
2023-01-25T06:38:42.261Z,3.09
2023-01-25T06:41:12.669Z,3.17
2023-01-25T06:43:40.617Z,3.02
2023-01-25T06:46:11.930Z,2.93
2023-01-25T06:48:40.042Z,2.82
2023-01-25T06:51:09.127Z,2.78
2023-01-25T06:53:38.304Z,2.74
2023-01-25T06:56:10.765Z,2.73
2023-01-25T06:58:39.411Z,2.73
2023-01-25T07:01:12.985Z,2.72
2023-01-25T07:03:40.944Z,2.63
2023-01-25T07:06:10.549Z,2.63
2023-01-25T07:08:39.591Z,2.63
2023-01-25T07:11:09.507Z,2.60
2023-01-25T07:13:37.068Z,2.62
2023-01-25T07:16:07.167Z,2.63
2023-01-25T07:18:37.387Z,2.61
2023-01-25T07:21:06.516Z,2.63
2023-01-25T07:23:37.783Z,2.66
2023-01-25T07:26:06.705Z,2.64
2023-01-25T07:28:34.632Z,2.72
2023-01-25T07:31:06.988Z,2.90
2023-01-25T07:33:36.373Z,2.91
2023-01-25T07:36:05.821Z,2.88
2023-01-25T07:38:36.015Z,2.88
2023-01-25T07:41:04.638Z,2.83
2023-01-25T07:43:32.925Z,2.78
2023-01-25T07:46:04.519Z,2.77
2023-01-25T07:48:33.182Z,2.74
2023-01-25T07:51:12.381Z,2.73
2023-01-25T07:53:40.692Z,2.79
2023-01-25T07:56:08.719Z,2.82
2023-01-25T07:58:36.579Z,2.81
2023-01-25T08:01:07.849Z,2.84
2023-01-25T08:03:36.557Z,2.82
2023-01-25T08:06:06.454Z,2.82
2023-01-25T08:08:35.547Z,2.80
2023-01-25T08:11:09.651Z,2.86
2023-01-25T08:13:37.182Z,2.96
2023-01-25T08:16:05.174Z,2.99
2023-01-25T08:18:35.765Z,3.00
2023-01-25T08:21:05.332Z,2.96
2023-01-25T08:23:33.060Z,3.08
2023-01-25T08:26:02.867Z,3.06
2023-01-25T08:28:30.439Z,3.16
2023-01-25T08:31:06.089Z,3.17
2023-01-25T08:33:34.025Z,3.14
2023-01-25T08:36:01.824Z,3.07
2023-01-25T08:38:30.807Z,3.13
2023-01-25T08:41:05.876Z,3.16
2023-01-25T08:43:33.853Z,3.13
2023-01-25T08:46:01.582Z,3.17
2023-01-25T08:48:29.148Z,3.17
2023-01-25T08:50:56.778Z,3.15
2023-01-25T08:53:24.425Z,3.11
2023-01-25T08:55:53.469Z,3.16
2023-01-25T08:58:22.209Z,3.13
2023-01-25T09:00:50.366Z,3.23
2023-01-25T09:03:18.435Z,3.34
2023-01-25T09:05:46.057Z,3.44
2023-01-25T09:08:13.550Z,3.50
2023-01-25T09:10:41.055Z,3.47
2023-01-25T09:13:09.972Z,3.55
2023-01-25T09:15:37.533Z,3.57
2023-01-25T09:18:05.595Z,3.53
2023-01-25T09:20:34.549Z,3.51
2023-01-25T09:23:02.364Z,3.56
2023-01-25T09:25:29.994Z,3.50
2023-01-25T09:27:57.795Z,3.43
2023-01-25T09:30:40.803Z,3.38
2023-01-25T09:33:17.487Z,3.34
2023-01-25T09:35:49.076Z,3.37
2023-01-25T09:38:16.694Z,3.39
2023-01-25T09:40:54.452Z,3.41
2023-01-25T09:43:33.640Z,3.40
2023-01-25T09:46:15.763Z,3.51
2023-01-25T09:49:06.769Z,3.49
2023-01-25T09:51:51.306Z,3.52
2023-01-25T09:54:21.110Z,3.45
2023-01-25T09:56:51.692Z,3.44
2023-01-25T09:59:26.171Z,3.39
2023-01-25T10:01:58.636Z,3.44
2023-01-25T10:04:29.784Z,3.45
2023-01-25T10:07:01.848Z,3.54
2023-01-25T10:09:38.521Z,3.53
2023-01-25T10:12:13.239Z,3.51
2023-01-25T10:14:41.088Z,3.55
2023-01-25T10:17:17.938Z,3.56
2023-01-25T10:19:58.486Z,3.58
2023-01-25T10:22:29.962Z,3.57
2023-01-25T10:25:25.233Z,3.67
2023-01-25T10:28:03.820Z,3.63
2023-01-25T10:30:35.448Z,3.69
2023-01-25T10:33:12.915Z,3.70
2023-01-25T10:35:47.053Z,3.75
2023-01-25T10:38:20.922Z,3.75
2023-01-25T10:40:54.196Z,3.77
2023-01-25T10:43:22.456Z,3.79
2023-01-25T10:45:50.803Z,3.80
2023-01-25T10:48:22.212Z,3.80
2023-01-25T10:50:53.071Z,3.82
2023-01-25T10:53:33.475Z,3.70
2023-01-25T10:56:20.280Z,3.76
2023-01-25T10:58:49.429Z,3.71
2023-01-25T11:01:27.755Z,3.72
2023-01-25T11:03:57.476Z,3.68
2023-01-25T11:06:36.517Z,3.74
2023-01-25T11:09:47.666Z,3.69
2023-01-25T11:12:20.706Z,3.64
2023-01-25T11:14:50.732Z,3.61
2023-01-25T11:17:27.403Z,3.63
2023-01-25T11:20:17.959Z,3.67
2023-01-25T11:22:54.249Z,3.67
2023-01-25T11:25:31.382Z,3.63
2023-01-25T11:28:18.130Z,3.68
2023-01-25T11:30:46.355Z,3.68
2023-01-25T11:33:15.341Z,3.75
2023-01-25T11:35:58.305Z,3.75
2023-01-25T11:38:26.478Z,3.76
2023-01-25T11:41:02.989Z,3.78
2023-01-25T11:43:51.931Z,3.79
2023-01-25T11:46:35.356Z,3.75
2023-01-25T11:49:13.044Z,3.71
2023-01-25T11:51:51.511Z,3.70
2023-01-25T11:54:39.923Z,3.71
2023-01-25T11:57:21.151Z,3.62
2023-01-25T12:00:05.374Z,3.61
2023-01-25T12:03:02.289Z,3.66
2023-01-25T12:05:44.428Z,3.60
2023-01-25T12:08:32.849Z,3.58
2023-01-25T12:11:10.440Z,3.62
2023-01-25T12:13:55.505Z,3.66
2023-01-25T12:16:33.704Z,3.66
2023-01-25T12:19:14.266Z,3.70
2023-01-25T12:21:57.724Z,3.47
2023-01-25T12:24:33.350Z,3.50
2023-01-25T12:27:14.806Z,3.55
2023-01-25T12:29:47.858Z,3.61
2023-01-25T12:32:25.085Z,3.67
2023-01-25T12:35:03.489Z,3.62
2023-01-25T12:37:36.304Z,3.60
2023-01-25T12:40:11.142Z,3.67
2023-01-25T12:42:45.289Z,3.60
2023-01-25T12:45:18.089Z,3.52
2023-01-25T12:47:50.930Z,3.57
2023-01-25T12:50:23.696Z,3.48
2023-01-25T12:52:54.947Z,3.49
2023-01-25T12:55:22.840Z,3.51
2023-01-25T12:57:57.955Z,3.48
2023-01-25T13:00:37.275Z,3.51
2023-01-25T13:03:18.918Z,3.51
2023-01-25T13:05:52.812Z,3.55
2023-01-25T13:08:32.026Z,3.55
2023-01-25T13:11:10.815Z,3.56
2023-01-25T13:13:38.484Z,3.57
2023-01-25T13:16:35.489Z,3.55
2023-01-25T13:19:04.754Z,3.46
2023-01-25T13:21:46.551Z,3.44
2023-01-25T13:24:19.951Z,3.46
2023-01-25T13:26:50.403Z,3.47
2023-01-25T13:29:49.307Z,3.54
2023-01-25T13:32:59.576Z,3.54
2023-01-25T13:35:43.095Z,4.26
2023-01-25T13:38:37.980Z,4.34
2023-01-25T13:41:12.813Z,4.26
2023-01-25T13:43:43.259Z,4.17
2023-01-25T13:46:14.311Z,4.06
2023-01-25T13:48:54.945Z,4.08
2023-01-25T13:51:23.988Z,3.99
2023-01-25T13:53:59.461Z,3.90
2023-01-25T13:56:30.264Z,3.58
2023-01-25T13:58:57.895Z,3.56
2023-01-25T14:01:26.985Z,3.56
2023-01-25T14:03:59.722Z,3.54
2023-01-25T14:06:30.666Z,3.53
2023-01-25T14:09:01.108Z,3.50
2023-01-25T14:11:31.061Z,3.48
2023-01-25T14:14:01.864Z,3.50
2023-01-25T14:16:30.903Z,3.45
2023-01-25T14:19:20.528Z,3.41
2023-01-25T14:21:49.448Z,3.39
2023-01-25T14:24:19.085Z,3.43
2023-01-25T14:26:47.408Z,3.42
2023-01-25T14:29:35.942Z,3.36
2023-01-25T14:32:04.471Z,3.26
2023-01-25T14:34:32.100Z,3.18
2023-01-25T14:37:08.281Z,3.18
2023-01-25T14:39:36.272Z,3.14
2023-01-25T14:42:04.225Z,3.13
2023-01-25T14:44:33.753Z,3.18
2023-01-25T14:47:29.423Z,3.19
2023-01-25T14:49:57.161Z,3.24
2023-01-25T14:52:28.230Z,3.21
2023-01-25T14:54:58.437Z,3.23
2023-01-25T14:57:34.230Z,3.19
2023-01-25T15:00:04.901Z,3.17
2023-01-25T15:02:39.106Z,3.15
2023-01-25T15:05:17.246Z,3.13
2023-01-25T15:07:48.029Z,3.17
2023-01-25T15:10:19.302Z,3.20
2023-01-25T15:13:12.979Z,3.18
2023-01-25T15:15:52.364Z,3.19
2023-01-25T15:18:42.569Z,3.17
2023-01-25T15:21:11.734Z,3.10
2023-01-25T15:23:41.610Z,3.13
2023-01-25T15:26:15.756Z,3.18
2023-01-25T15:28:43.331Z,3.15
2023-01-25T15:31:17.430Z,3.14
2023-01-25T15:33:45.237Z,3.06
2023-01-25T15:36:14.356Z,3.03
2023-01-25T15:38:43.489Z,3.03
2023-01-25T15:41:12.234Z,3.03
2023-01-25T15:43:39.845Z,2.99
2023-01-25T15:46:12.503Z,2.97
2023-01-25T15:48:43.927Z,3.01
2023-01-25T15:51:12.795Z,2.97
2023-01-25T15:53:40.982Z,2.94
2023-01-25T15:56:15.429Z,2.96
2023-01-25T15:58:46.716Z,2.89
2023-01-25T16:01:14.503Z,2.93
2023-01-25T16:03:42.275Z,2.91
2023-01-25T16:06:26.533Z,2.93
2023-01-25T16:08:54.232Z,2.87
2023-01-25T16:11:23.180Z,2.93
2023-01-25T16:13:51.200Z,2.95
2023-01-25T16:16:21.783Z,2.90
2023-01-25T16:18:49.641Z,2.90
2023-01-25T16:21:17.354Z,2.88
2023-01-25T16:23:45.117Z,2.89
2023-01-25T16:26:19.877Z,2.88
2023-01-25T16:28:48.818Z,2.85
2023-01-25T16:31:31.417Z,2.83
2023-01-25T16:34:00.715Z,3.34
2023-01-25T16:36:28.988Z,3.18
2023-01-25T16:38:56.724Z,3.13
2023-01-25T16:41:24.542Z,3.11
2023-01-25T16:43:53.479Z,3.09
2023-01-25T16:46:22.962Z,3.06
2023-01-25T16:48:53.121Z,2.98
2023-01-25T16:51:22.562Z,2.95
2023-01-25T16:53:51.634Z,2.94
2023-01-25T16:56:20.687Z,2.97
2023-01-25T16:58:49.305Z,2.95
2023-01-25T17:01:20.056Z,2.91
2023-01-25T17:03:49.267Z,2.90
2023-01-25T17:06:20.029Z,2.88
2023-01-25T17:08:48.076Z,2.88
2023-01-25T17:11:18.577Z,2.86
2023-01-25T17:13:49.616Z,2.86
2023-01-25T17:16:19.090Z,2.84
2023-01-25T17:18:47.248Z,3.00
2023-01-25T17:21:16.714Z,2.95
2023-01-25T17:23:44.761Z,2.86
2023-01-25T17:26:14.834Z,2.86
2023-01-25T17:28:43.237Z,2.88
2023-01-25T17:31:15.421Z,2.87
2023-01-25T17:33:44.386Z,2.85
2023-01-25T17:36:15.824Z,2.89
2023-01-25T17:38:43.722Z,2.84
2023-01-25T17:41:13.397Z,2.80
2023-01-25T17:43:41.068Z,2.78
2023-01-25T17:46:13.165Z,2.81
2023-01-25T17:48:41.097Z,2.79
2023-01-25T17:51:10.145Z,2.79
2023-01-25T17:53:37.676Z,2.85
2023-01-25T17:56:07.110Z,2.84
2023-01-25T17:58:36.677Z,2.77
2023-01-25T18:01:13.973Z,2.74
2023-01-25T18:03:42.436Z,2.88
2023-01-25T18:06:13.808Z,2.92
2023-01-25T18:08:43.447Z,2.93
2023-01-25T18:11:12.877Z,2.86
2023-01-25T18:13:40.903Z,2.83
2023-01-25T18:16:09.762Z,2.80
2023-01-25T18:18:38.193Z,2.80
2023-01-25T18:21:08.982Z,2.80
2023-01-25T18:23:39.703Z,2.78
2023-01-25T18:26:09.100Z,2.77
2023-01-25T18:28:36.858Z,2.75
2023-01-25T18:31:07.038Z,2.86
2023-01-25T18:33:34.625Z,2.87
2023-01-25T18:36:03.752Z,2.85
2023-01-25T18:38:32.685Z,2.80
2023-01-25T18:41:01.676Z,2.79
2023-01-25T18:43:29.225Z,2.79
2023-01-25T18:45:58.226Z,2.74
2023-01-25T18:48:31.111Z,2.72
2023-01-25T18:50:59.795Z,2.72
2023-01-25T18:53:28.208Z,2.68
2023-01-25T18:56:01.988Z,2.69
2023-01-25T18:58:31.148Z,2.67
2023-01-25T19:01:03.582Z,2.66
2023-01-25T19:03:31.169Z,2.64
2023-01-25T19:05:58.850Z,2.64
2023-01-25T19:08:27.122Z,2.61
2023-01-25T19:11:01.584Z,2.64
2023-01-25T19:13:32.021Z,2.68
2023-01-25T19:16:02.112Z,2.68
2023-01-25T19:18:31.756Z,2.68
2023-01-25T19:20:59.780Z,2.79
2023-01-25T19:23:32.735Z,2.91
2023-01-25T19:26:01.780Z,2.98
2023-01-25T19:28:29.768Z,3.00
2023-01-25T19:30:57.866Z,3.00
2023-01-25T19:33:25.483Z,2.94
2023-01-25T19:35:59.666Z,2.90
2023-01-25T19:38:27.662Z,2.81
2023-01-25T19:40:55.188Z,2.81
2023-01-25T19:43:24.230Z,2.77
2023-01-25T19:45:51.916Z,2.72
2023-01-25T19:48:19.504Z,2.66
2023-01-25T19:50:47.044Z,2.56
2023-01-25T19:53:14.596Z,2.56
2023-01-25T19:55:43.106Z,2.57
2023-01-25T19:58:11.988Z,2.56
2023-01-25T20:00:40.918Z,2.53
2023-01-25T20:03:16.256Z,2.51
2023-01-25T20:05:44.474Z,2.52
2023-01-25T20:08:12.043Z,2.53
2023-01-25T20:10:39.608Z,2.48
2023-01-25T20:13:07.137Z,2.45
2023-01-25T20:15:34.930Z,2.42
2023-01-25T20:18:03.846Z,2.47
2023-01-25T20:20:31.361Z,2.48
2023-01-25T20:22:58.938Z,2.45
2023-01-25T20:25:26.551Z,2.49
2023-01-25T20:27:54.173Z,2.46
2023-01-25T20:30:21.919Z,2.35
2023-01-25T20:32:49.592Z,2.38
2023-01-25T20:35:18.537Z,2.31
2023-01-25T20:37:48.043Z,2.31
2023-01-25T20:40:17.439Z,2.73
2023-01-25T20:42:45.004Z,2.58
2023-01-25T20:45:16.868Z,2.66
2023-01-25T20:47:44.483Z,2.68
2023-01-25T20:50:12.425Z,2.60
2023-01-25T20:52:41.315Z,2.52
2023-01-25T20:55:10.286Z,2.48
2023-01-25T20:57:38.284Z,2.48
2023-01-25T21:00:09.331Z,2.45
2023-01-25T21:02:38.827Z,2.46
2023-01-25T21:05:06.901Z,2.47
2023-01-25T21:07:34.430Z,2.51
2023-01-25T21:10:03.306Z,2.50
2023-01-25T21:12:31.298Z,2.45
2023-01-25T21:14:58.881Z,2.40
2023-01-25T21:17:26.448Z,2.37
2023-01-25T21:19:54.042Z,2.33
2023-01-25T21:22:21.640Z,2.29
2023-01-25T21:24:49.251Z,2.34
2023-01-25T21:27:18.221Z,2.25
2023-01-25T21:29:45.800Z,2.28
2023-01-25T21:32:13.364Z,2.26
2023-01-25T21:34:40.938Z,2.23
2023-01-25T21:37:08.507Z,2.30
2023-01-25T21:39:36.157Z,2.38
2023-01-25T21:42:03.857Z,2.48
2023-01-25T21:44:50.089Z,2.43
2023-01-25T21:47:29.866Z,2.44
2023-01-25T21:50:15.806Z,2.50
2023-01-25T21:52:43.366Z,2.47
2023-01-25T21:55:11.060Z,2.46
2023-01-25T21:57:45.531Z,2.30
2023-01-25T22:00:16.862Z,2.33
2023-01-25T22:02:44.609Z,2.32
2023-01-25T22:05:12.184Z,2.35
2023-01-25T22:07:39.823Z,2.39
2023-01-25T22:10:07.981Z,2.33
2023-01-25T22:12:35.660Z,2.28
2023-01-25T22:15:03.278Z,2.29
2023-01-25T22:17:33.355Z,2.29
2023-01-25T22:20:00.972Z,2.26
2023-01-25T22:22:28.461Z,2.24
2023-01-25T22:24:56.740Z,2.23
2023-01-25T22:27:32.857Z,2.28
2023-01-25T22:30:00.569Z,2.25
2023-01-25T22:32:28.064Z,2.22
2023-01-25T22:34:56.972Z,2.20
2023-01-25T22:37:24.633Z,2.22
2023-01-25T22:39:54.149Z,2.15
2023-01-25T22:42:21.735Z,2.12
2023-01-25T22:44:49.335Z,2.09
2023-01-25T22:47:16.965Z,2.08
2023-01-25T22:49:44.510Z,2.10
2023-01-25T22:52:13.419Z,2.07
2023-01-25T22:54:40.999Z,2.03
2023-01-25T22:57:08.682Z,2.01
2023-01-25T22:59:36.253Z,1.97
2023-01-25T23:02:04.011Z,1.97
2023-01-25T23:04:31.594Z,1.98
2023-01-25T23:07:12.646Z,1.96
2023-01-25T23:09:42.106Z,1.94
2023-01-25T23:12:09.797Z,1.92
2023-01-25T23:14:52.721Z,1.95
2023-01-25T23:17:39.056Z,1.86
2023-01-25T23:20:09.811Z,1.83
2023-01-25T23:22:37.636Z,1.83
2023-01-25T23:25:08.872Z,1.86
2023-01-25T23:27:36.530Z,1.91
2023-01-25T23:30:07.130Z,1.90
2023-01-25T23:32:34.649Z,1.90
2023-01-25T23:35:02.235Z,1.87
2023-01-25T23:37:29.996Z,1.85
2023-01-25T23:39:57.608Z,1.87
2023-01-25T23:42:26.630Z,1.84
2023-01-25T23:44:54.214Z,1.83
2023-01-25T23:47:21.795Z,1.86
2023-01-25T23:49:49.316Z,1.89
2023-01-25T23:52:16.877Z,1.87
2023-01-25T23:54:44.491Z,1.86
2023-01-25T23:57:12.127Z,1.83
2023-01-25T23:59:41.068Z,1.77
